Time;durP1;ratioP1;P1;durP2;ratioP2;P2;SDS_P1;SDS_P2;PMS_P1;PMS_P2;Temp;Humidity;BMP_temperature;BMP_pressure;BME280_temperature;BME280_humidity;BME280_pressure;Samples;Min_cycle;Max_cycle;Signal;HPM_P1;HPM_P2
2021/05/22 00:01:42;;;;;;;8.70;5.23;;;19.40;85.80;;;;;;5130797;27;20431;-41
2021/05/22 00:04:13;;;;;;;5.40;4.90;;;19.40;87.50;;;;;;5146178;27;20430;-41
2021/05/22 00:06:43;;;;;;;9.47;5.40;;;19.20;88.70;;;;;;5146101;27;20456;-41
2021/05/22 00:09:15;;;;;;;10.20;6.90;;;19.20;88.30;;;;;;5139696;27;20524;-40
2021/05/22 00:11:45;;;;;;;5.73;5.33;;;19.30;88.80;;;;;;5139554;27;20427;-40
2021/05/22 00:14:16;;;;;;;9.07;5.97;;;19.10;90.10;;;;;;5145083;27;20419;-40
2021/05/22 00:16:46;;;;;;;9.77;7.00;;;19.00;90.60;;;;;;5146134;27;20445;-40
2021/05/22 00:19:17;;;;;;;9.97;6.90;;;19.10;90.00;;;;;;5144506;27;20416;-39
2021/05/22 00:21:48;;;;;;;7.53;6.83;;;19.00;89.60;;;;;;5145261;27;20521;-40
2021/05/22 00:24:19;;;;;;;7.00;6.27;;;19.20;90.80;;;;;;5138295;27;20445;-40
2021/05/22 00:26:50;;;;;;;8.40;7.60;;;19.40;91.20;;;;;;5144830;27;20449;-39
2021/05/22 00:29:21;;;;;;;10.17;8.20;;;19.40;90.30;;;;;;5141774;27;20871;-39
2021/05/22 00:31:51;;;;;;;8.40;6.90;;;19.40;90.00;;;;;;5145582;27;20431;-42
2021/05/22 00:34:22;;;;;;;7.93;7.13;;;19.20;88.90;;;;;;5130631;27;20454;-40
2021/05/22 00:36:52;;;;;;;6.90;6.23;;;19.00;90.50;;;;;;5145138;27;20441;-41
2021/05/22 00:39:24;;;;;;;7.33;6.63;;;19.40;89.80;;;;;;5144143;27;20568;-41
2021/05/22 00:41:54;;;;;;;6.63;6.13;;;19.60;90.00;;;;;;5142379;27;20423;-41
2021/05/22 00:44:30;;;;;;;8.43;7.63;;;19.60;90.30;;;;;;5123390;27;20435;-41
2021/05/22 00:47:01;;;;;;;8.70;7.70;;;19.60;90.40;;;;;;5144986;27;20576;-41
2021/05/22 00:49:32;;;;;;;10.90;7.40;;;19.60;90.20;;;;;;5141095;27;20508;-40
2021/05/22 00:52:03;;;;;;;4.13;3.83;;;19.50;90.30;;;;;;5141649;27;20478;-41
2021/05/22 00:54:35;;;;;;;6.07;5.50;;;19.40;87.30;;;;;;5142393;27;20464;-41
2021/05/22 00:57:06;;;;;;;5.03;3.87;;;19.30;88.70;;;;;;5143638;27;20462;-39
2021/05/22 00:59:38;;;;;;;3.70;3.40;;;19.10;88.30;;;;;;5150207;27;20532;-39
2021/05/22 01:02:08;;;;;;;4.40;3.70;;;18.90;86.50;;;;;;5146070;27;20466;-39
2021/05/22 01:04:39;;;;;;;4.10;3.80;;;18.90;85.70;;;;;;5144582;27;20441;-40
2021/05/22 01:07:09;;;;;;;4.30;3.90;;;18.80;89.10;;;;;;5143687;27;20525;-40
2021/05/22 01:09:42;;;;;;;4.63;4.23;;;18.60;89.60;;;;;;5143643;27;20507;-41
2021/05/22 01:12:14;;;;;;;5.03;3.87;;;18.50;90.40;;;;;;5144703;27;20456;-39
2021/05/22 01:14:47;;;;;;;4.17;3.87;;;18.50;90.50;;;;;;5143928;27;20511;-39
2021/05/22 01:17:19;;;;;;;5.27;3.47;;;18.60;89.30;;;;;;5145417;27;20472;-40
2021/05/22 01:19:59;;;;;;;4.10;3.80;;;18.60;89.50;;;;;;5141875;27;20453;-40
2021/05/22 01:22:36;;;;;;;3.70;3.50;;;18.60;87.80;;;;;;5143009;27;20485;-41
2021/05/22 01:25:09;;;;;;;3.70;3.40;;;18.60;88.20;;;;;;5150428;27;20452;-40
2021/05/22 01:27:41;;;;;;;4.73;3.83;;;18.60;87.70;;;;;;5137946;27;20492;-40
2021/05/22 01:30:13;;;;;;;3.83;3.57;;;18.60;86.60;;;;;;5142952;27;20482;-42
2021/05/22 01:32:44;;;;;;;5.20;4.20;;;18.50;86.30;;;;;;5145335;27;20876;-41
2021/05/22 01:35:15;;;;;;;4.57;4.20;;;18.40;86.50;;;;;;5143638;27;20445;-41
2021/05/22 01:37:46;;;;;;;7.30;4.80;;;18.40;88.10;;;;;;5145555;27;20437;-40
2021/05/22 01:40:17;;;;;;;5.40;3.90;;;18.40;88.00;;;;;;5142808;27;20445;-39
2021/05/22 01:42:49;;;;;;;5.33;3.60;;;18.30;88.20;;;;;;5131447;27;20912;-41
2021/05/22 01:45:25;;;;;;;4.03;3.60;;;18.30;88.60;;;;;;5146915;27;20443;-41
2021/05/22 01:47:58;;;;;;;4.90;4.07;;;18.20;88.10;;;;;;5149897;27;20556;-41
2021/05/22 01:50:30;;;;;;;3.80;3.50;;;18.20;88.90;;;;;;5142960;27;20456;-41
2021/05/22 01:53:06;;;;;;;4.17;3.77;;;18.20;88.80;;;;;;5144185;27;20469;-41
2021/05/22 01:55:38;;;;;;;4.70;4.20;;;18.10;89.40;;;;;;5143368;27;20564;-41
2021/05/22 01:58:12;;;;;;;4.40;4.00;;;18.00;89.70;;;;;;5144101;28;20455;-41
2021/05/22 02:00:44;;;;;;;4.20;3.90;;;17.90;90.10;;;;;;5142121;28;20444;-39
2021/05/22 02:03:19;;;;;;;4.30;3.90;;;17.90;90.50;;;;;;5142856;28;20437;-41
2021/05/22 02:05:52;;;;;;;5.13;4.10;;;17.80;90.30;;;;;;5143368;28;20436;-39
2021/05/22 02:08:24;;;;;;;4.50;3.33;;;17.70;91.00;;;;;;5143888;27;20468;-40
2021/05/22 02:10:55;;;;;;;5.37;4.60;;;17.60;91.70;;;;;;5147465;27;20884;-41
2021/05/22 02:13:27;;;;;;;4.80;4.40;;;17.60;92.20;;;;;;5148535;27;20457;-39
2021/05/22 02:16:01;;;;;;;5.17;3.87;;;17.60;91.80;;;;;;5146900;27;20466;-41
2021/05/22 02:18:34;;;;;;;6.33;3.87;;;17.50;92.20;;;;;;5147226;27;20445;-40
2021/05/22 02:21:06;;;;;;;4.03;3.70;;;17.40;92.50;;;;;;5147098;27;20533;-40
2021/05/22 02:23:42;;;;;;;8.40;4.20;;;17.40;92.70;;;;;;5147669;27;20433;-40
2021/05/22 02:26:13;;;;;;;5.93;4.40;;;17.40;92.70;;;;;;5144634;27;20461;-40
2021/05/22 02:28:48;;;;;;;6.20;4.03;;;17.30;93.10;;;;;;5145424;27;20520;-38
2021/05/22 02:31:24;;;;;;;4.40;4.00;;;17.30;93.30;;;;;;5147905;27;20947;-39
2021/05/22 02:33:58;;;;;;;6.17;4.00;;;17.30;93.60;;;;;;5146799;27;20501;-40
2021/05/22 02:36:29;;;;;;;6.70;4.67;;;17.20;94.10;;;;;;5146413;27;20460;-40
2021/05/22 02:39:01;;;;;;;5.87;4.40;;;17.10;94.30;;;;;;5149913;27;20445;-39
2021/05/22 02:41:32;;;;;;;7.67;4.50;;;17.10;95.00;;;;;;5149176;27;20452;-41
2021/05/22 02:44:14;;;;;;;6.63;4.70;;;17.10;94.60;;;;;;5145561;27;20884;-39
2021/05/22 02:47:01;;;;;;;5.13;4.70;;;17.10;94.70;;;;;;5129213;27;20510;-40
2021/05/22 02:49:51;;;;;;;6.20;5.03;;;17.10;95.00;;;;;;5146998;27;20483;-40
2021/05/22 02:52:22;;;;;;;6.53;5.03;;;17.00;94.90;;;;;;5148349;27;20472;-41
2021/05/22 02:54:54;;;;;;;9.60;4.87;;;16.90;95.20;;;;;;5146696;27;20456;-40
2021/05/22 02:57:33;;;;;;;6.50;4.60;;;16.80;95.80;;;;;;5146865;27;20505;-41
2021/05/22 03:00:09;;;;;;;6.47;4.30;;;16.70;96.20;;;;;;5142980;27;20436;-40
2021/05/22 03:02:57;;;;;;;;;;;;;;;;;;;;;
2021/05/22 03:05:34;;;;;;;4.97;4.40;;;16.60;96.40;;;;;;5079980;27;20437;-40
2021/05/22 03:08:06;;;;;;;4.87;4.03;;;16.60;96.70;;;;;;5146329;27;20476;-41
2021/05/22 03:10:37;;;;;;;5.00;4.30;;;16.50;97.00;;;;;;5145744;27;20445;-40
2021/05/22 03:13:08;;;;;;;6.57;4.50;;;16.30;97.60;;;;;;5145703;27;20441;-40
2021/05/22 03:15:58;;;;;;;5.30;4.80;;;16.20;97.70;;;;;;5150829;27;20551;-40
2021/05/22 03:18:46;;;;;;;6.23;5.57;;;16.10;98.10;;;;;;5146130;27;20493;-41
2021/05/22 03:21:17;;;;;;;5.57;4.80;;;15.90;98.50;;;;;;5138690;27;20441;-41
2021/05/22 03:23:47;;;;;;;5.70;5.20;;;15.80;99.00;;;;;;5147112;27;20448;-40
2021/05/22 03:26:18;;;;;;;5.60;4.53;;;15.70;99.30;;;;;;5143413;27;20446;-40
2021/05/22 03:29:22;;;;;;;5.53;5.03;;;15.60;99.90;;;;;;5140229;27;20488;-39
2021/05/22 03:31:55;;;;;;;6.10;4.90;;;15.60;99.80;;;;;;5143083;27;20448;-39
2021/05/22 03:34:26;;;;;;;5.70;5.10;;;15.50;99.90;;;;;;5145796;27;20470;-38
2021/05/22 03:36:57;;;;;;;6.90;6.30;;;15.40;99.90;;;;;;5146898;27;20448;-39
2021/05/22 03:39:27;;;;;;;7.07;5.80;;;15.40;99.90;;;;;;5152597;27;20463;-39
2021/05/22 03:41:58;;;;;;;6.80;5.77;;;15.30;99.90;;;;;;5145138;27;20465;-38
2021/05/22 03:44:28;;;;;;;5.33;4.13;;;15.20;99.90;;;;;;5145328;27;20493;-40
2021/05/22 03:47:05;;;;;;;6.20;5.00;;;15.10;99.90;;;;;;5127004;27;20445;-40
2021/05/22 03:49:37;;;;;;;5.60;5.07;;;15.00;99.90;;;;;;5140719;27;20488;-39
2021/05/22 03:52:08;;;;;;;6.67;5.00;;;14.90;99.90;;;;;;5146361;27;20756;-39
2021/05/22 03:54:38;;;;;;;6.10;4.80;;;14.80;99.90;;;;;;5145681;27;20461;-39
2021/05/22 03:57:09;;;;;;;7.13;5.53;;;14.80;99.90;;;;;;5145809;27;20441;-38
2021/05/22 03:59:39;;;;;;;5.50;5.00;;;14.70;99.90;;;;;;5136883;27;20452;-40
2021/05/22 04:02:11;;;;;;;5.90;5.30;;;14.60;99.90;;;;;;5145872;27;20478;-39
2021/05/22 04:04:41;;;;;;;8.30;6.30;;;14.50;99.90;;;;;;5145034;27;20460;-40
2021/05/22 04:07:12;;;;;;;6.30;5.67;;;14.40;99.90;;;;;;5143978;27;20441;-40
2021/05/22 04:09:42;;;;;;;5.77;5.33;;;14.40;99.90;;;;;;5143887;27;20480;-40
2021/05/22 04:12:13;;;;;;;8.90;5.63;;;14.40;99.90;;;;;;5145682;27;20452;-40
2021/05/22 04:14:43;;;;;;;5.40;4.53;;;14.30;99.90;;;;;;5143896;27;20452;-40
2021/05/22 04:17:15;;;;;;;5.43;4.97;;;14.10;99.90;;;;;;5145464;27;20543;-40
2021/05/22 04:19:45;;;;;;;6.50;5.90;;;14.10;99.90;;;;;;5143246;27;20445;-40
2021/05/22 04:22:16;;;;;;;6.10;4.90;;;14.00;99.90;;;;;;5142839;27;20460;-40
2021/05/22 04:24:46;;;;;;;9.90;5.40;;;14.00;99.90;;;;;;5146230;27;20455;-40
2021/05/22 04:27:17;;;;;;;7.07;5.07;;;13.90;99.90;;;;;;5138538;27;20452;-39
2021/05/22 04:29:47;;;;;;;6.10;5.50;;;13.90;99.90;;;;;;5143027;27;20484;-40
2021/05/22 04:32:19;;;;;;;5.80;5.17;;;13.80;99.90;;;;;;5144448;27;20500;-39
2021/05/22 04:34:49;;;;;;;6.50;5.00;;;13.70;99.90;;;;;;5144217;27;22086;-39
2021/05/22 04:37:20;;;;;;;6.93;5.73;;;13.60;99.90;;;;;;5144843;27;20444;-39
2021/05/22 04:39:50;;;;;;;5.80;5.13;;;13.60;99.90;;;;;;5144772;27;20449;-40
2021/05/22 04:42:21;;;;;;;6.27;4.83;;;13.50;99.90;;;;;;5144162;27;20459;-40
2021/05/22 04:44:51;;;;;;;5.63;5.13;;;13.50;99.90;;;;;;5146422;27;20478;-38
2021/05/22 04:47:24;;;;;;;8.00;4.90;;;13.40;99.90;;;;;;5144124;27;21049;-40
2021/05/22 04:49:55;;;;;;;5.23;4.80;;;13.40;99.90;;;;;;5141701;27;20468;-40
2021/05/22 04:52:26;;;;;;;6.73;5.57;;;13.30;99.90;;;;;;5144299;27;20835;-40
2021/05/22 04:54:57;;;;;;;8.73;6.23;;;13.30;99.90;;;;;;5137655;27;20465;-37
2021/05/22 04:57:27;;;;;;;7.30;5.60;;;13.20;99.90;;;;;;5137980;27;20449;-38
2021/05/22 04:59:58;;;;;;;5.93;5.10;;;13.20;99.90;;;;;;5143149;27;20444;-40
2021/05/22 05:02:29;;;;;;;6.73;5.30;;;13.10;99.90;;;;;;5144113;27;20465;-39
2021/05/22 05:05:02;;;;;;;5.97;5.20;;;13.00;99.90;;;;;;5143875;27;20432;-39
2021/05/22 05:07:33;;;;;;;6.20;5.60;;;12.90;99.90;;;;;;5138867;27;20448;-38
2021/05/22 05:10:04;;;;;;;6.57;5.10;;;12.90;99.90;;;;;;5143068;27;20484;-39
2021/05/22 05:12:34;;;;;;;5.53;5.03;;;12.80;99.90;;;;;;5143711;27;20964;-40
2021/05/22 05:15:06;;;;;;;6.20;5.17;;;12.70;99.90;;;;;;5143144;27;20456;-39
2021/05/22 05:17:37;;;;;;;8.53;5.40;;;12.70;99.90;;;;;;5142818;27;20447;-39
2021/05/22 05:20:09;;;;;;;6.13;5.40;;;12.70;99.90;;;;;;5142811;27;20459;-39
2021/05/22 05:22:40;;;;;;;7.30;5.50;;;12.70;99.90;;;;;;5143200;27;20446;-39
2021/05/22 05:25:11;;;;;;;8.57;5.90;;;12.60;99.90;;;;;;5143150;27;20601;-37
2021/05/22 05:27:42;;;;;;;7.33;6.63;;;12.60;99.90;;;;;;5141840;27;20207;-40
2021/05/22 05:30:13;;;;;;;7.33;5.50;;;12.50;99.90;;;;;;5142242;27;20472;-40
2021/05/22 05:32:45;;;;;;;7.00;5.60;;;12.40;99.90;;;;;;5143278;27;20445;-39
2021/05/22 05:35:15;;;;;;;6.73;5.50;;;12.40;99.90;;;;;;5143535;27;20441;-39
2021/05/22 05:37:46;;;;;;;10.13;6.57;;;12.40;99.90;;;;;;5143852;27;20517;-38
2021/05/22 05:40:19;;;;;;;8.53;5.63;;;12.30;99.90;;;;;;5143322;27;20471;-37
2021/05/22 05:42:50;;;;;;;6.83;6.07;;;12.30;99.90;;;;;;5142953;27;20449;-40
2021/05/22 05:45:21;;;;;;;7.23;6.03;;;12.30;99.90;;;;;;5142119;27;20445;-40
2021/05/22 05:47:53;;;;;;;8.43;6.70;;;12.30;99.90;;;;;;5144082;27;20522;-40
2021/05/22 05:50:24;;;;;;;6.83;6.03;;;12.20;99.90;;;;;;5142887;27;20476;-40
2021/05/22 05:52:55;;;;;;;7.87;5.70;;;12.20;99.90;;;;;;5143526;27;20448;-39
2021/05/22 05:55:25;;;;;;;9.37;6.40;;;12.10;99.90;;;;;;5142932;27;20473;-39
2021/05/22 05:57:56;;;;;;;6.65;5.80;;;12.10;99.90;;;;;;5143849;28;20437;-39
2021/05/22 06:00:30;;;;;;;7.00;6.30;;;12.10;99.90;;;;;;5142486;28;20267;-39
2021/05/22 06:03:02;;;;;;;15.75;6.60;;;12.00;99.90;;;;;;5143351;28;20441;-39
2021/05/22 06:05:33;;;;;;;11.13;6.27;;;12.00;99.90;;;;;;5141952;28;20195;-38
2021/05/22 06:08:03;;;;;;;11.83;6.43;;;12.00;99.90;;;;;;5143170;28;20552;-39
2021/05/22 06:10:33;;;;;;;6.78;6.07;;;11.90;99.90;;;;;;5143377;28;20530;-39
2021/05/22 06:13:04;;;;;;;8.48;5.45;;;11.90;99.90;;;;;;5137886;28;20191;-40
2021/05/22 06:15:35;;;;;;;8.35;5.85;;;12.00;99.90;;;;;;5142266;28;20226;-37
2021/05/22 06:18:07;;;;;;;6.90;6.30;;;11.90;99.90;;;;;;5143770;28;20191;-37
2021/05/22 06:20:37;;;;;;;7.70;6.95;;;11.80;99.90;;;;;;5142566;28;20233;-39
2021/05/22 06:23:08;;;;;;;7.63;5.53;;;11.80;99.90;;;;;;5142873;28;20203;-35
2021/05/22 06:25:38;;;;;;;8.88;7.10;;;11.80;99.90;;;;;;5143388;28;21002;-37
2021/05/22 06:28:09;;;;;;;10.30;6.43;;;11.80;99.90;;;;;;5130255;28;20203;-40
2021/05/22 06:30:39;;;;;;;8.00;6.25;;;11.70;99.90;;;;;;5142210;28;20276;-39
2021/05/22 06:33:11;;;;;;;8.27;6.40;;;11.60;99.90;;;;;;5143450;28;20219;-37
2021/05/22 06:35:42;;;;;;;7.43;6.65;;;11.60;99.90;;;;;;5141993;28;20221;-39
2021/05/22 06:38:12;;;;;;;7.47;5.53;;;11.60;99.90;;;;;;5143434;28;20191;-38
2021/05/22 06:40:43;;;;;;;8.95;5.75;;;11.60;99.90;;;;;;5143009;28;20271;-41
2021/05/22 06:43:13;;;;;;;10.20;6.43;;;11.50;99.90;;;;;;5143156;28;20203;-40
2021/05/22 06:45:45;;;;;;;7.25;5.97;;;11.50;99.90;;;;;;5142503;28;20206;-40
2021/05/22 06:48:17;;;;;;;8.10;6.38;;;11.40;99.90;;;;;;5143514;28;20223;-40
2021/05/22 06:50:48;;;;;;;9.10;5.63;;;11.40;99.90;;;;;;5142197;28;20227;-40
2021/05/22 06:53:18;;;;;;;8.35;6.20;;;11.40;99.90;;;;;;5143167;28;20199;-40
2021/05/22 06:55:49;;;;;;;8.60;5.93;;;11.20;99.90;;;;;;5143411;27;20203;-39
2021/05/22 06:58:19;;;;;;;7.00;4.60;;;11.20;99.90;;;;;;5147215;27;20576;-35
2021/05/22 07:00:50;;;;;;;6.40;5.75;;;11.10;99.90;;;;;;5138423;27;20195;-39
2021/05/22 07:03:21;;;;;;;6.97;6.13;;;11.10;99.90;;;;;;5146021;27;20271;-40
2021/05/22 07:05:52;;;;;;;7.50;6.05;;;11.10;99.90;;;;;;5143335;27;20223;-39
2021/05/22 07:08:23;;;;;;;6.78;6.15;;;11.10;99.90;;;;;;5145115;27;20195;-40
2021/05/22 07:10:55;;;;;;;11.00;6.35;;;11.00;99.90;;;;;;5138960;27;20264;-40
2021/05/22 07:13:25;;;;;;;9.73;6.28;;;11.00;99.90;;;;;;5146880;27;20203;-39
2021/05/22 07:15:59;;;;;;;7.15;5.82;;;10.90;99.90;;;;;;5146396;27;20241;-37
2021/05/22 07:18:30;;;;;;;8.50;5.88;;;10.90;99.90;;;;;;5146758;27;20199;-40
2021/05/22 07:21:01;;;;;;;8.55;6.63;;;10.90;99.90;;;;;;5145755;27;20271;-39
2021/05/22 07:23:32;;;;;;;7.05;5.90;;;10.80;99.90;;;;;;5146455;27;20211;-38
2021/05/22 07:26:03;;;;;;;6.75;6.05;;;10.80;99.90;;;;;;5144719;27;20598;-37
2021/05/22 07:28:35;;;;;;;9.15;5.90;;;10.80;99.90;;;;;;5145734;27;20676;-37
2021/05/22 07:31:05;;;;;;;10.63;7.60;;;10.80;99.90;;;;;;5146633;27;20314;-39
2021/05/22 07:33:40;;;;;;;7.57;5.95;;;10.70;99.90;;;;;;5145167;27;20589;-38
2021/05/22 07:36:11;;;;;;;12.25;6.38;;;10.70;99.90;;;;;;5145859;27;20198;-39
2021/05/22 07:38:42;;;;;;;9.07;7.45;;;10.70;99.90;;;;;;5137293;27;20214;-38
2021/05/22 07:41:12;;;;;;;8.10;6.90;;;10.70;99.90;;;;;;5146017;27;20207;-39
2021/05/22 07:43:43;;;;;;;7.63;6.93;;;10.70;99.90;;;;;;5145481;27;20192;-39
2021/05/22 07:46:13;;;;;;;8.10;6.68;;;10.70;99.90;;;;;;5146369;27;20192;-36
2021/05/22 07:48:46;;;;;;;11.50;7.15;;;10.70;99.90;;;;;;5145600;27;20287;-39
2021/05/22 07:51:16;;;;;;;10.50;7.82;;;10.60;99.90;;;;;;5145896;27;20314;-38
2021/05/22 07:53:47;;;;;;;6.63;6.03;;;10.50;99.90;;;;;;5145603;27;20200;-39
2021/05/22 07:56:17;;;;;;;8.27;6.75;;;10.60;99.90;;;;;;5145422;27;20250;-37
2021/05/22 07:58:47;;;;;;;9.20;7.43;;;10.60;99.90;;;;;;5145520;27;20188;-39
2021/05/22 08:01:18;;;;;;;7.07;6.38;;;10.60;99.90;;;;;;5145210;27;20199;-39
2021/05/22 08:03:49;;;;;;;8.98;7.70;;;10.50;99.90;;;;;;5144180;27;20355;-39
2021/05/22 08:06:20;;;;;;;13.25;7.60;;;10.40;99.90;;;;;;5133815;27;20208;-38
2021/05/22 08:08:50;;;;;;;10.30;7.38;;;10.40;99.90;;;;;;5144894;27;20217;-37
2021/05/22 08:11:21;;;;;;;7.43;6.22;;;10.50;99.90;;;;;;5145050;27;20211;-37
2021/05/22 08:13:51;;;;;;;9.77;6.95;;;10.60;99.90;;;;;;5144696;27;20506;-38
2021/05/22 08:16:22;;;;;;;7.00;6.40;;;10.60;99.90;;;;;;5145179;27;20249;-39
2021/05/22 08:18:53;;;;;;;8.35;6.82;;;10.70;99.90;;;;;;5145240;27;20218;-37
2021/05/22 08:21:24;;;;;;;9.35;7.18;;;10.80;99.90;;;;;;5145012;27;20199;-39
2021/05/22 08:23:55;;;;;;;8.20;7.30;;;10.90;99.90;;;;;;5129392;27;20218;-39
2021/05/22 08:26:25;;;;;;;10.20;6.65;;;11.00;99.90;;;;;;5145006;27;20519;-37
2021/05/22 08:29:16;;;;;;;8.02;6.45;;;11.10;99.90;;;;;;5144857;27;20216;-38
2021/05/22 08:31:46;;;;;;;9.13;6.50;;;11.10;99.90;;;;;;5144797;27;20199;-38
2021/05/22 08:34:18;;;;;;;8.38;7.50;;;11.10;99.90;;;;;;5144133;27;20204;-35
2021/05/22 08:36:49;;;;;;;7.28;6.43;;;11.20;99.90;;;;;;5144475;27;20204;-38
2021/05/22 08:39:19;;;;;;;8.00;7.20;;;11.20;99.90;;;;;;5145043;27;20210;-35
2021/05/22 08:41:51;;;;;;;13.82;7.70;;;11.30;99.90;;;;;;5144539;27;20237;-39
2021/05/22 08:44:22;;;;;;;7.97;7.13;;;11.30;99.90;;;;;;5144436;27;20198;-38
2021/05/22 08:46:52;;;;;;;9.95;7.97;;;11.30;99.90;;;;;;5144621;27;20225;-39
2021/05/22 08:49:25;;;;;;;9.60;7.33;;;11.30;99.90;;;;;;5144166;27;20259;-38
2021/05/22 08:51:55;;;;;;;7.88;6.50;;;11.20;99.90;;;;;;5144358;27;20449;-36
2021/05/22 08:54:26;;;;;;;7.70;6.93;;;11.20;99.90;;;;;;5142335;27;20206;-38
2021/05/22 08:56:56;;;;;;;7.40;6.70;;;11.20;99.90;;;;;;5144082;27;20223;-37
2021/05/22 08:59:27;;;;;;;7.60;6.90;;;11.30;99.90;;;;;;5144447;27;20233;-38
2021/05/22 09:01:57;;;;;;;9.75;6.65;;;11.30;99.90;;;;;;5144635;27;20199;-38
2021/05/22 09:04:32;;;;;;;7.45;6.50;;;11.40;99.90;;;;;;5142773;27;20206;-39
2021/05/22 09:07:04;;;;;;;7.78;6.82;;;11.40;99.90;;;;;;5144582;27;20210;-38
2021/05/22 09:09:43;;;;;;;10.07;6.38;;;11.40;99.90;;;;;;5143463;27;20195;-39
2021/05/22 09:12:14;;;;;;;6.93;6.25;;;11.50;99.90;;;;;;5144590;27;20206;-39
2021/05/22 09:14:47;;;;;;;7.35;6.65;;;11.50;99.90;;;;;;5143908;27;20264;-38
2021/05/22 09:17:18;;;;;;;11.00;7.28;;;11.50;99.90;;;;;;5133817;27;20229;-39
2021/05/22 09:19:50;;;;;;;7.53;6.82;;;11.50;99.90;;;;;;5142774;27;20714;-38
2021/05/22 09:22:23;;;;;;;9.18;6.32;;;11.50;99.90;;;;;;5144594;27;20200;-38
2021/05/22 09:24:59;;;;;;;8.18;6.20;;;11.50;99.90;;;;;;5143670;27;20203;-37
2021/05/22 09:27:34;;;;;;;7.05;6.35;;;11.50;99.90;;;;;;5143553;27;20192;-39
2021/05/22 09:30:10;;;;;;;8.03;6.30;;;11.50;99.90;;;;;;5143061;27;20203;-36
2021/05/22 09:32:41;;;;;;;6.70;6.00;;;11.50;99.90;;;;;;5141174;27;20517;-39
2021/05/22 09:35:14;;;;;;;7.32;6.47;;;11.50;99.90;;;;;;5143064;27;20206;-37
2021/05/22 09:37:48;;;;;;;7.28;6.13;;;11.60;99.90;;;;;;5143570;27;20194;-36
2021/05/22 09:40:21;;;;;;;7.93;7.03;;;11.50;99.90;;;;;;5143660;27;20272;-35
2021/05/22 09:42:52;;;;;;;6.20;5.65;;;11.40;99.90;;;;;;5134621;27;20221;-36
2021/05/22 09:45:34;;;;;;;7.32;6.63;;;11.40;99.90;;;;;;5143697;27;20187;-38
2021/05/22 09:48:16;;;;;;;10.90;7.07;;;11.40;99.90;;;;;;5143987;27;20223;-36
2021/05/22 09:50:52;;;;;;;7.47;6.05;;;11.40;99.90;;;;;;5143320;27;20305;-36
2021/05/22 09:53:31;;;;;;;8.38;6.97;;;11.40;99.90;;;;;;5144051;27;20267;-38
2021/05/22 09:56:20;;;;;;;10.68;7.03;;;11.40;99.90;;;;;;5142496;27;20245;-38
2021/05/22 09:58:53;;;;;;;6.90;5.82;;;11.40;99.90;;;;;;5138539;27;20199;-39
2021/05/22 10:01:29;;;;;;;7.90;6.22;;;11.40;99.90;;;;;;5143418;28;20270;-37
2021/05/22 10:04:17;;;;;;;7.47;6.32;;;11.50;99.90;;;;;;5142107;28;20202;-35
2021/05/22 10:06:49;;;;;;;7.57;6.15;;;11.40;99.90;;;;;;5141894;28;20214;-37
2021/05/22 10:09:21;;;;;;;7.72;6.53;;;11.40;99.90;;;;;;5143880;28;20255;-38
2021/05/22 10:12:05;;;;;;;6.75;6.05;;;11.40;99.90;;;;;;5139560;28;20223;-35
2021/05/22 10:14:37;;;;;;;7.05;6.35;;;11.40;99.90;;;;;;5142668;28;20271;-39
2021/05/22 10:17:08;;;;;;;9.10;6.72;;;11.40;99.90;;;;;;5143065;28;20272;-38
2021/05/22 10:19:39;;;;;;;8.18;6.25;;;11.50;99.90;;;;;;5142478;28;20216;-38
2021/05/22 10:22:11;;;;;;;7.32;6.60;;;11.50;99.90;;;;;;5142783;28;20191;-37
2021/05/22 10:24:42;;;;;;;7.70;6.45;;;11.50;99.90;;;;;;5143553;28;20195;-36
2021/05/22 10:27:14;;;;;;;8.00;6.93;;;11.50;99.90;;;;;;5143107;28;20248;-36
2021/05/22 10:29:45;;;;;;;8.20;7.07;;;11.50;99.90;;;;;;5142992;27;20199;-39
2021/05/22 10:32:22;;;;;;;7.80;6.95;;;11.50;99.90;;;;;;5146873;27;20519;-35
2021/05/22 10:34:54;;;;;;;9.75;6.68;;;11.50;99.90;;;;;;5146180;27;20333;-38
2021/05/22 10:37:45;;;;;;;10.70;7.07;;;11.40;99.90;;;;;;5146543;27;20191;-36
2021/05/22 10:40:16;;;;;;;8.17;6.60;;;11.40;99.90;;;;;;5146899;27;20456;-38
2021/05/22 10:42:53;;;;;;;8.18;7.47;;;11.50;99.90;;;;;;5147609;27;20460;-36
2021/05/22 10:45:29;;;;;;;8.32;7.53;;;11.50;99.90;;;;;;5146111;27;20255;-38
2021/05/22 10:48:37;;;;;;;7.33;6.67;;;11.50;99.90;;;;;;5146630;27;20222;-39
2021/05/22 10:51:34;;;;;;;7.80;6.57;;;11.50;99.90;;;;;;5140075;27;20492;-36
2021/05/22 10:54:14;;;;;;;10.87;6.73;;;11.50;99.90;;;;;;5139187;27;20203;-38
2021/05/22 10:57:03;;;;;;;10.35;7.45;;;11.50;99.90;;;;;;5146471;27;20444;-37
2021/05/22 10:59:36;;;;;;;7.43;6.70;;;11.60;99.90;;;;;;5145892;27;20202;-39
2021/05/22 11:02:35;;;;;;;9.50;7.68;;;11.50;99.90;;;;;;5146786;27;20455;-35
2021/05/22 11:05:35;;;;;;;8.47;7.17;;;11.50;99.90;;;;;;5146213;27;20649;-36
2021/05/22 11:08:30;;;;;;;7.93;7.13;;;11.50;99.90;;;;;;5146557;27;20453;-37
2021/05/22 11:11:02;;;;;;;8.80;7.00;;;11.50;99.90;;;;;;5145923;27;20248;-34
2021/05/22 11:13:40;;;;;;;14.18;7.45;;;11.60;99.90;;;;;;5146197;27;20437;-36
2021/05/22 11:16:11;;;;;;;10.20;7.40;;;11.50;99.90;;;;;;5146929;27;20214;-40
2021/05/22 11:19:05;;;;;;;7.70;7.00;;;11.50;99.90;;;;;;5141838;27;20207;-38
2021/05/22 11:21:36;;;;;;;8.30;6.90;;;11.50;99.90;;;;;;5127954;27;20457;-35
2021/05/22 11:24:10;;;;;;;8.70;7.27;;;11.50;99.90;;;;;;5146752;27;20210;-36
2021/05/22 11:26:59;;;;;;;7.30;6.60;;;11.60;99.90;;;;;;5142198;27;20558;-37
2021/05/22 11:29:59;;;;;;;10.38;6.43;;;11.50;99.90;;;;;;5145296;27;20449;-38
2021/05/22 11:33:00;;;;;;;8.25;7.45;;;11.60;99.90;;;;;;5146128;27;20199;-39
2021/05/22 11:35:41;;;;;;;8.27;6.40;;;11.50;99.90;;;;;;5032845;28;20209;-39
2021/05/22 11:38:32;;;;;;;9.80;6.90;;;11.50;99.90;;;;;;5042752;28;20441;-37
2021/05/22 11:41:11;;;;;;;9.40;6.93;;;11.60;99.90;;;;;;5042790;28;20449;-37
2021/05/22 11:44:04;;;;;;;8.43;6.93;;;11.60;99.90;;;;;;5042011;28;20198;-37
2021/05/22 11:46:35;;;;;;;8.95;7.22;;;11.50;99.90;;;;;;5033172;28;20272;-33
2021/05/22 11:49:06;;;;;;;7.28;6.57;;;11.50;99.90;;;;;;5041852;28;20682;-38
2021/05/22 11:51:39;;;;;;;7.75;6.85;;;11.50;99.90;;;;;;5041729;28;20227;-39
2021/05/22 11:54:11;;;;;;;6.95;6.35;;;11.50;99.90;;;;;;5038577;28;20210;-38
2021/05/22 11:56:41;;;;;;;7.93;6.32;;;11.50;99.90;;;;;;5042842;28;20195;-35
2021/05/22 11:59:16;;;;;;;7.88;6.85;;;11.50;99.90;;;;;;5041804;28;20194;-38
2021/05/22 12:01:46;;;;;;;8.85;6.65;;;11.50;99.90;;;;;;5041917;28;20229;-38
2021/05/22 12:04:17;;;;;;;6.90;6.15;;;11.40;99.90;;;;;;5041287;28;20414;-34
2021/05/22 12:06:48;;;;;;;14.20;7.50;;;11.40;99.90;;;;;;5042438;28;20233;-38
2021/05/22 12:09:20;;;;;;;9.85;7.28;;;11.50;99.90;;;;;;5082424;27;20517;-39
2021/05/22 12:11:59;;;;;;;9.50;7.05;;;11.50;99.90;;;;;;5144696;27;20255;-37
2021/05/22 12:14:42;;;;;;;8.00;7.05;;;11.50;99.90;;;;;;5144961;27;20195;-38
2021/05/22 12:17:15;;;;;;;8.05;6.93;;;11.40;99.90;;;;;;5145600;27;20204;-34
2021/05/22 12:19:46;;;;;;;8.95;5.93;;;11.40;99.90;;;;;;5145193;27;20255;-34
2021/05/22 12:22:18;;;;;;;7.60;6.90;;;11.30;99.90;;;;;;5145806;27;20187;-37
2021/05/22 12:24:49;;;;;;;11.00;6.55;;;11.30;99.90;;;;;;5144902;27;20308;-38
2021/05/22 12:27:19;;;;;;;8.60;6.40;;;11.40;99.90;;;;;;5144644;27;20260;-36
2021/05/22 12:29:53;;;;;;;7.28;6.57;;;11.40;99.90;;;;;;5144349;27;20218;-36
2021/05/22 12:32:24;;;;;;;7.53;6.65;;;11.50;99.90;;;;;;5144204;27;20222;-39
2021/05/22 12:35:02;;;;;;;8.13;6.32;;;11.40;99.90;;;;;;5129891;27;20207;-37
2021/05/22 12:37:33;;;;;;;6.50;5.90;;;11.30;99.90;;;;;;5135431;27;20206;-39
2021/05/22 12:40:06;;;;;;;7.50;6.75;;;11.40;99.90;;;;;;5144773;27;20643;-39
2021/05/22 12:42:37;;;;;;;9.57;6.15;;;11.30;99.90;;;;;;5143858;27;20210;-38
2021/05/22 12:45:17;;;;;;;7.90;7.10;;;11.30;99.90;;;;;;5144081;27;20199;-38
2021/05/22 12:47:49;;;;;;;9.10;6.38;;;11.30;99.90;;;;;;5144281;27;20230;-37
2021/05/22 12:50:28;;;;;;;8.88;7.32;;;11.30;99.90;;;;;;5144209;27;20631;-38
2021/05/22 12:53:00;;;;;;;7.95;5.43;;;11.40;99.90;;;;;;5145119;27;20187;-37
2021/05/22 12:55:31;;;;;;;7.50;6.00;;;11.30;99.90;;;;;;5144223;27;20297;-34
2021/05/22 12:58:07;;;;;;;8.10;6.75;;;11.30;99.90;;;;;;5144939;27;20211;-37
2021/05/22 13:00:39;;;;;;;9.63;5.82;;;11.30;99.90;;;;;;5143958;27;20616;-37
2021/05/22 13:03:09;;;;;;;6.82;5.78;;;11.30;99.90;;;;;;5149854;27;20245;-33
2021/05/22 13:05:46;;;;;;;6.57;5.88;;;11.30;99.90;;;;;;5155715;27;20191;-38
2021/05/22 13:08:25;;;;;;;10.27;6.68;;;11.30;99.90;;;;;;5145001;27;20190;-39
2021/05/22 13:11:11;;;;;;;6.40;5.80;;;11.30;99.90;;;;;;5125428;27;20245;-40
2021/05/22 13:13:42;;;;;;;9.32;6.35;;;11.40;99.90;;;;;;5141998;27;20203;-38
2021/05/22 13:16:14;;;;;;;15.73;7.22;;;11.30;99.90;;;;;;5140835;27;20248;-36
2021/05/22 13:18:46;;;;;;;9.27;7.38;;;11.30;99.90;;;;;;5141292;27;20191;-37
2021/05/22 13:21:17;;;;;;;6.85;5.50;;;11.30;99.90;;;;;;5140980;27;20237;-38